createdAt,value
2022-07-29T00:02:01.260Z,17.37
2022-07-29T00:04:31.644Z,17.39
2022-07-29T00:07:01.945Z,17.39
2022-07-29T00:09:32.306Z,17.45
2022-07-29T00:12:02.694Z,17.43
2022-07-29T00:14:33.106Z,17.39
2022-07-29T00:17:03.448Z,17.44
2022-07-29T00:19:33.788Z,17.43
2022-07-29T00:22:04.213Z,17.45
2022-07-29T00:24:34.571Z,17.44
2022-07-29T00:27:04.947Z,17.39
2022-07-29T00:29:35.638Z,17.33
2022-07-29T00:32:05.766Z,17.33
2022-07-29T00:34:36.057Z,17.34
2022-07-29T00:37:06.466Z,17.30
2022-07-29T00:39:36.941Z,17.29
2022-07-29T00:42:07.236Z,17.23
2022-07-29T00:44:37.717Z,17.22
2022-07-29T00:47:08.170Z,17.26
2022-07-29T00:49:38.459Z,17.25
2022-07-29T00:52:08.779Z,17.22
2022-07-29T00:54:44.203Z,17.19
2022-07-29T00:57:09.519Z,17.20
2022-07-29T00:59:39.974Z,17.19
2022-07-29T01:02:10.365Z,17.22
2022-07-29T01:04:40.646Z,17.19
2022-07-29T01:07:11.039Z,17.12
2022-07-29T01:09:46.173Z,17.14
2022-07-29T01:12:11.826Z,17.09
2022-07-29T01:14:42.214Z,17.13
2022-07-29T01:17:12.599Z,17.16
2022-07-29T01:19:42.964Z,17.16
2022-07-29T01:22:13.335Z,17.21
2022-07-29T01:24:43.756Z,17.19
2022-07-29T01:27:16.314Z,17.17
2022-07-29T01:29:44.541Z,17.18
2022-07-29T01:32:22.614Z,17.20
2022-07-29T01:34:45.268Z,17.15
2022-07-29T01:37:15.639Z,17.10
2022-07-29T01:39:46.045Z,17.05
2022-07-29T01:42:16.416Z,17.10
2022-07-29T01:44:46.841Z,17.13
2022-07-29T01:47:17.189Z,17.13
2022-07-29T01:49:47.600Z,17.16
2022-07-29T01:52:19.330Z,17.16
2022-07-29T01:54:48.347Z,17.14
2022-07-29T01:57:18.735Z,17.15
2022-07-29T01:59:49.131Z,17.15
2022-07-29T02:02:19.550Z,17.10
2022-07-29T02:04:49.958Z,17.06
2022-07-29T02:07:20.230Z,17.04
2022-07-29T02:09:50.641Z,16.99
2022-07-29T02:12:21.008Z,16.99
2022-07-29T02:14:51.424Z,16.93
2022-07-29T02:17:21.776Z,16.92
2022-07-29T02:19:52.297Z,16.93
2022-07-29T02:22:22.559Z,16.94
2022-07-29T02:24:52.962Z,16.92
2022-07-29T02:27:23.328Z,16.89
2022-07-29T02:29:53.787Z,16.85
2022-07-29T02:32:24.116Z,16.80
2022-07-29T02:34:54.631Z,16.82
2022-07-29T02:37:24.910Z,16.81
2022-07-29T02:39:55.321Z,16.78
2022-07-29T02:42:25.681Z,16.73
2022-07-29T02:44:56.125Z,16.63
2022-07-29T02:47:26.489Z,16.61
2022-07-29T02:49:57.008Z,16.66
2022-07-29T02:52:27.306Z,16.62
2022-07-29T02:54:57.724Z,16.67
2022-07-29T02:57:28.181Z,16.65
2022-07-29T02:59:58.540Z,16.68
2022-07-29T03:02:28.923Z,16.67
2022-07-29T03:04:59.409Z,16.70
2022-07-29T03:07:29.723Z,16.75
2022-07-29T03:10:00.179Z,16.81
2022-07-29T03:12:30.540Z,16.80
2022-07-29T03:15:00.976Z,16.81
2022-07-29T03:17:31.058Z,16.81
2022-07-29T03:20:01.477Z,16.83
2022-07-29T03:22:31.846Z,16.83
2022-07-29T03:25:02.367Z,16.85
2022-07-29T03:27:32.679Z,16.81
2022-07-29T03:30:03.109Z,16.81
2022-07-29T03:32:33.467Z,16.80
2022-07-29T03:35:03.910Z,16.78
2022-07-29T03:37:34.260Z,16.80
2022-07-29T03:40:04.743Z,16.74
2022-07-29T03:42:35.056Z,16.73
2022-07-29T03:45:05.485Z,16.72
2022-07-29T03:47:51.162Z,16.69
2022-07-29T03:50:06.335Z,16.66
2022-07-29T03:52:36.586Z,16.62
2022-07-29T03:55:06.986Z,16.61
2022-07-29T03:57:37.342Z,16.58
2022-07-29T04:00:07.768Z,16.58
2022-07-29T04:02:38.101Z,16.58
2022-07-29T04:05:08.504Z,16.58
2022-07-29T04:07:38.870Z,16.55
2022-07-29T04:10:09.313Z,16.56
2022-07-29T04:12:39.631Z,16.53
2022-07-29T04:15:10.043Z,16.52
2022-07-29T04:17:40.388Z,16.48
2022-07-29T04:20:10.790Z,16.51
2022-07-29T04:22:41.139Z,16.51
2022-07-29T04:25:11.586Z,16.50
2022-07-29T04:27:42.028Z,16.51
2022-07-29T04:30:12.325Z,16.51
2022-07-29T04:32:42.656Z,16.54
2022-07-29T04:35:13.086Z,16.56
2022-07-29T04:37:43.441Z,16.60
2022-07-29T04:40:14.135Z,16.63
2022-07-29T04:42:46.562Z,16.63
2022-07-29T04:45:14.671Z,16.56
2022-07-29T04:47:45.022Z,16.56
2022-07-29T04:50:15.471Z,16.59
2022-07-29T04:52:45.846Z,16.61
2022-07-29T04:55:16.284Z,16.58
2022-07-29T04:57:46.662Z,16.47
2022-07-29T05:00:17.191Z,16.46
2022-07-29T05:02:47.503Z,16.48
2022-07-29T05:05:17.889Z,16.51
2022-07-29T05:07:48.276Z,16.49
2022-07-29T05:10:18.717Z,16.50
2022-07-29T05:12:49.127Z,16.48
2022-07-29T05:15:19.557Z,16.49
2022-07-29T05:17:49.949Z,16.51
2022-07-29T05:20:20.363Z,16.49
2022-07-29T05:22:50.769Z,16.55
2022-07-29T05:25:21.190Z,16.58
2022-07-29T05:27:51.577Z,16.60
2022-07-29T05:30:22.018Z,16.63
2022-07-29T05:32:52.373Z,16.62
2022-07-29T05:35:22.803Z,16.64
2022-07-29T05:37:53.175Z,16.65
2022-07-29T05:40:23.602Z,16.68
2022-07-29T05:42:53.958Z,16.63
2022-07-29T05:45:24.411Z,16.65
2022-07-29T05:47:54.743Z,16.70
2022-07-29T05:50:25.168Z,16.68
2022-07-29T05:52:55.547Z,16.62
2022-07-29T05:55:25.599Z,16.66
2022-07-29T05:57:55.974Z,16.67
2022-07-29T06:00:26.393Z,16.75
2022-07-29T06:02:56.742Z,16.80
2022-07-29T06:05:27.142Z,16.86
2022-07-29T06:07:57.505Z,16.91
2022-07-29T06:10:27.982Z,16.96
2022-07-29T06:12:58.329Z,17.07
2022-07-29T06:15:28.695Z,17.13
2022-07-29T06:18:01.337Z,17.12
2022-07-29T06:20:29.480Z,17.17
2022-07-29T06:22:59.836Z,17.20
2022-07-29T06:25:30.380Z,17.26
2022-07-29T06:28:00.449Z,17.29
2022-07-29T06:30:30.933Z,17.32
2022-07-29T06:33:01.257Z,17.41
2022-07-29T06:35:38.552Z,17.46
2022-07-29T06:38:01.879Z,17.49
2022-07-29T06:40:32.180Z,17.60
2022-07-29T06:43:02.606Z,17.68
2022-07-29T06:45:32.909Z,17.75
2022-07-29T06:48:03.221Z,17.85
2022-07-29T06:50:33.587Z,17.85
2022-07-29T06:53:03.905Z,17.88
2022-07-29T06:55:34.276Z,17.92
2022-07-29T06:58:04.602Z,17.95
2022-07-29T07:00:34.993Z,17.97
2022-07-29T07:03:05.274Z,18.01
2022-07-29T07:05:35.624Z,18.06
2022-07-29T07:08:05.947Z,18.13
2022-07-29T07:10:36.306Z,18.19
2022-07-29T07:13:06.737Z,18.27
2022-07-29T07:15:39.208Z,18.33
2022-07-29T07:18:07.365Z,18.25
2022-07-29T07:20:37.758Z,18.29
2022-07-29T07:23:08.056Z,18.34
2022-07-29T07:25:38.419Z,18.37
2022-07-29T07:28:08.747Z,18.43
2022-07-29T07:30:39.131Z,18.48
2022-07-29T07:33:09.538Z,18.44
2022-07-29T07:35:39.794Z,18.38
2022-07-29T07:38:10.183Z,18.41
2022-07-29T07:40:40.492Z,18.52
2022-07-29T07:43:10.821Z,18.60
2022-07-29T07:45:41.295Z,18.67
2022-07-29T07:48:11.581Z,18.73
2022-07-29T07:50:41.841Z,18.74
2022-07-29T07:53:12.166Z,18.75
2022-07-29T07:58:12.839Z,18.77
2022-07-29T08:00:43.245Z,18.83
2022-07-29T08:03:16.670Z,18.89
2022-07-29T08:05:43.784Z,18.92
2022-07-29T08:08:14.076Z,18.84
2022-07-29T08:10:44.402Z,18.85
2022-07-29T08:13:14.690Z,18.84
2022-07-29T08:15:45.032Z,18.97
2022-07-29T08:18:15.291Z,19.12
2022-07-29T08:20:45.611Z,19.23
2022-07-29T08:23:15.934Z,19.21
2022-07-29T08:25:46.222Z,19.32
2022-07-29T08:28:16.582Z,19.39
2022-07-29T08:30:46.810Z,19.52
2022-07-29T08:33:17.128Z,19.63
2022-07-29T08:35:47.357Z,19.73
2022-07-29T08:38:17.614Z,19.81
2022-07-29T08:40:47.926Z,19.90
2022-07-29T08:43:18.218Z,19.89
2022-07-29T08:45:48.824Z,19.82
2022-07-29T08:48:18.878Z,19.89
2022-07-29T08:50:49.142Z,19.94
2022-07-29T08:53:19.527Z,20.03
2022-07-29T08:55:49.952Z,20.13
2022-07-29T08:58:22.990Z,20.16
2022-07-29T09:00:50.725Z,20.27
2022-07-29T09:03:21.070Z,20.38
2022-07-29T09:05:51.446Z,20.44
2022-07-29T09:08:22.101Z,20.50
2022-07-29T09:10:52.128Z,20.53
2022-07-29T09:13:22.477Z,20.56
2022-07-29T09:15:52.785Z,20.64
2022-07-29T09:18:30.825Z,20.66
2022-07-29T09:20:53.357Z,20.75
2022-07-29T09:23:24.608Z,20.80
2022-07-29T09:25:53.802Z,20.87
2022-07-29T09:28:24.054Z,20.95
2022-07-29T09:30:54.371Z,21.02
2022-07-29T09:33:24.738Z,21.08
2022-07-29T09:35:56.351Z,21.11
2022-07-29T09:38:25.153Z,21.12
2022-07-29T09:40:55.442Z,21.13
2022-07-29T09:43:25.702Z,21.14
2022-07-29T09:45:55.991Z,21.16
2022-07-29T09:48:26.242Z,21.12
2022-07-29T09:50:56.498Z,21.05
2022-07-29T09:53:26.740Z,21.06
2022-07-29T09:55:57.044Z,21.00
2022-07-29T09:58:27.288Z,21.01
2022-07-29T10:00:57.682Z,21.03
2022-07-29T10:03:27.864Z,21.06
2022-07-29T10:05:58.130Z,21.07
2022-07-29T10:08:28.397Z,21.09
2022-07-29T10:10:58.665Z,21.12
2022-07-29T10:13:28.896Z,21.09
2022-07-29T10:15:59.257Z,21.09
2022-07-29T10:18:29.417Z,21.11
2022-07-29T10:20:59.716Z,21.14
2022-07-29T10:23:29.932Z,21.13
2022-07-29T10:26:00.302Z,21.10
2022-07-29T10:28:30.465Z,21.06
2022-07-29T10:31:00.837Z,21.05
2022-07-29T10:33:31.010Z,21.07
2022-07-29T10:36:01.877Z,21.10
2022-07-29T10:38:32.097Z,21.13
2022-07-29T10:41:02.389Z,20.92
2022-07-29T10:43:32.664Z,20.89
2022-07-29T10:46:02.948Z,20.81
2022-07-29T10:48:33.210Z,20.87
2022-07-29T10:51:03.960Z,20.93
2022-07-29T10:53:34.006Z,20.92
2022-07-29T10:56:06.481Z,20.93
2022-07-29T10:58:34.960Z,20.97
2022-07-29T11:01:05.159Z,21.01
2022-07-29T11:03:35.462Z,21.06
2022-07-29T11:06:08.774Z,21.14
2022-07-29T11:08:36.050Z,21.20
2022-07-29T11:11:06.230Z,21.26
2022-07-29T11:13:41.083Z,21.31
2022-07-29T11:16:06.786Z,21.36
2022-07-29T11:18:37.007Z,21.38
2022-07-29T11:21:07.262Z,21.34
2022-07-29T11:23:37.642Z,21.37
2022-07-29T11:26:07.916Z,21.36
2022-07-29T11:28:38.116Z,21.31
2022-07-29T11:31:08.311Z,21.23
2022-07-29T11:33:56.503Z,21.20
2022-07-29T11:36:08.804Z,21.14
2022-07-29T11:38:41.612Z,21.12
2022-07-29T11:41:09.923Z,21.13
2022-07-29T11:43:40.171Z,21.20
2022-07-29T11:46:10.510Z,21.22
2022-07-29T11:48:40.732Z,21.22
2022-07-29T11:51:10.980Z,21.26
2022-07-29T11:53:41.220Z,21.30
2022-07-29T11:56:11.490Z,21.32
2022-07-29T11:58:41.807Z,21.34
2022-07-29T12:01:12.009Z,21.31
2022-07-29T12:03:43.735Z,21.29
2022-07-29T12:06:13.170Z,21.27
2022-07-29T12:08:43.438Z,21.26
2022-07-29T12:11:13.629Z,21.23
2022-07-29T12:13:43.793Z,21.20
2022-07-29T12:16:14.887Z,21.08
2022-07-29T12:18:44.868Z,20.96
2022-07-29T12:21:15.154Z,20.86
2022-07-29T12:23:45.405Z,20.76
2022-07-29T12:26:25.293Z,20.70
2022-07-29T12:28:47.069Z,20.64
2022-07-29T12:31:43.096Z,20.61
2022-07-29T12:33:46.500Z,20.62
2022-07-29T12:36:17.933Z,20.57
2022-07-29T12:38:47.077Z,20.56
2022-07-29T12:41:17.401Z,20.58
2022-07-29T12:43:47.653Z,20.61
2022-07-29T12:46:18.029Z,20.64
2022-07-29T12:48:48.278Z,20.67
2022-07-29T12:51:18.768Z,20.66
2022-07-29T12:53:48.787Z,20.66
2022-07-29T12:56:41.799Z,20.70
2022-07-29T12:58:51.299Z,20.66
2022-07-29T13:01:19.662Z,20.68
2022-07-29T13:03:56.958Z,20.64
2022-07-29T13:06:20.210Z,20.57
2022-07-29T13:08:50.477Z,20.57
2022-07-29T13:11:20.760Z,20.63
2022-07-29T13:13:51.105Z,20.65
2022-07-29T13:16:21.435Z,20.65
2022-07-29T13:18:51.592Z,20.61
2022-07-29T13:21:22.012Z,20.58
2022-07-29T13:23:52.163Z,20.63
2022-07-29T13:26:22.445Z,20.67
2022-07-29T13:28:52.718Z,20.70
2022-07-29T13:31:23.124Z,20.72
2022-07-29T13:33:53.276Z,20.76
2022-07-29T13:36:23.568Z,20.80
2022-07-29T13:38:53.835Z,20.83
2022-07-29T13:41:24.698Z,20.89
2022-07-29T13:43:54.962Z,20.93
2022-07-29T13:46:25.458Z,21.01
2022-07-29T13:48:55.535Z,21.05
2022-07-29T13:51:25.795Z,21.17
2022-07-29T13:53:56.056Z,21.26
2022-07-29T13:56:26.439Z,21.31
2022-07-29T13:58:56.562Z,21.35
2022-07-29T14:01:26.926Z,21.34
2022-07-29T14:03:57.100Z,21.35
2022-07-29T14:06:27.372Z,21.39
2022-07-29T14:08:57.670Z,21.39
2022-07-29T14:11:27.868Z,21.43
2022-07-29T14:13:58.092Z,21.49
2022-07-29T14:16:28.454Z,21.47
2022-07-29T14:18:58.605Z,21.47
2022-07-29T14:21:28.877Z,21.42
2022-07-29T14:23:59.101Z,21.45
2022-07-29T14:26:29.405Z,21.47
2022-07-29T14:28:59.587Z,21.50
2022-07-29T14:31:29.883Z,21.48
2022-07-29T14:34:02.840Z,21.54
2022-07-29T14:36:30.417Z,21.48
2022-07-29T14:39:00.558Z,21.58
2022-07-29T14:41:30.811Z,21.61
2022-07-29T14:44:01.157Z,21.62
2022-07-29T14:46:31.349Z,21.57
2022-07-29T14:49:01.576Z,21.61
2022-07-29T14:51:32.188Z,21.65
2022-07-29T14:54:02.002Z,21.61
2022-07-29T14:56:37.384Z,21.63
2022-07-29T14:59:02.472Z,21.59
2022-07-29T15:01:32.880Z,21.63
2022-07-29T15:04:02.985Z,21.65
2022-07-29T15:06:33.235Z,21.69
2022-07-29T15:09:03.441Z,21.65
2022-07-29T15:11:38.204Z,21.71
2022-07-29T15:14:03.911Z,21.78
2022-07-29T15:16:34.277Z,21.78
2022-07-29T15:19:04.380Z,21.83
2022-07-29T15:21:34.646Z,21.87
2022-07-29T15:24:04.868Z,21.93
2022-07-29T15:26:35.128Z,21.97
2022-07-29T15:29:05.354Z,22.03
2022-07-29T15:31:35.754Z,22.11
2022-07-29T15:34:06.355Z,22.12
2022-07-29T15:36:51.344Z,22.24
2022-07-29T15:39:06.271Z,22.34
2022-07-29T15:41:36.612Z,22.42
2022-07-29T15:44:06.750Z,22.45
2022-07-29T15:46:37.095Z,22.49
2022-07-29T15:49:07.258Z,22.44
2022-07-29T15:51:37.494Z,22.47
2022-07-29T15:54:07.658Z,22.52
2022-07-29T15:56:37.940Z,22.58
2022-07-29T15:59:08.119Z,22.66
2022-07-29T16:01:38.361Z,22.67
2022-07-29T16:04:08.615Z,22.73
2022-07-29T16:06:38.779Z,22.73
2022-07-29T16:09:08.983Z,22.88
2022-07-29T16:11:39.647Z,22.99
2022-07-29T16:14:09.392Z,22.95
2022-07-29T16:16:39.636Z,23.03
2022-07-29T16:19:09.850Z,23.11
2022-07-29T16:21:40.016Z,23.21
2022-07-29T16:24:10.204Z,23.15
2022-07-29T16:26:40.418Z,23.29
2022-07-29T16:29:10.599Z,23.33
2022-07-29T16:31:40.905Z,23.48
2022-07-29T16:34:11.013Z,23.43
2022-07-29T16:36:46.013Z,23.61
2022-07-29T16:39:11.412Z,23.72
2022-07-29T16:41:41.607Z,23.77
2022-07-29T16:44:11.779Z,23.83
2022-07-29T16:46:42.006Z,23.79
2022-07-29T16:49:12.199Z,23.87
2022-07-29T16:51:42.599Z,23.96
2022-07-29T16:54:12.639Z,23.93
2022-07-29T16:56:42.766Z,23.96
2022-07-29T16:59:12.929Z,24.00
2022-07-29T17:01:43.185Z,24.04
2022-07-29T17:04:13.329Z,23.98
2022-07-29T17:06:43.524Z,24.02
2022-07-29T17:09:13.679Z,23.96
2022-07-29T17:11:53.136Z,23.90
2022-07-29T17:14:14.046Z,23.80
2022-07-29T17:16:58.953Z,23.79
2022-07-29T17:19:14.459Z,23.77
2022-07-29T17:21:49.023Z,23.74
2022-07-29T17:24:14.918Z,23.66
2022-07-29T17:26:45.005Z,23.68
2022-07-29T17:29:15.170Z,23.63
2022-07-29T17:31:45.472Z,23.67
2022-07-29T17:34:15.524Z,23.67
2022-07-29T17:36:45.709Z,23.70
2022-07-29T17:39:15.858Z,23.72
2022-07-29T17:41:46.055Z,23.71
2022-07-29T17:44:16.214Z,23.69
2022-07-29T17:46:46.563Z,23.68
2022-07-29T17:49:16.737Z,23.69
2022-07-29T17:51:46.779Z,23.67
2022-07-29T17:54:16.952Z,23.65
2022-07-29T17:56:47.127Z,23.61
2022-07-29T17:59:17.273Z,23.64
2022-07-29T18:01:47.544Z,23.70
2022-07-29T18:04:17.755Z,23.69
2022-07-29T18:06:47.842Z,23.67
2022-07-29T18:09:17.986Z,23.69
2022-07-29T18:11:48.185Z,23.71
2022-07-29T18:14:18.350Z,23.72
2022-07-29T18:16:48.658Z,23.72
2022-07-29T18:19:18.734Z,23.68
2022-07-29T18:21:54.178Z,23.66
2022-07-29T18:24:19.122Z,23.64
2022-07-29T18:26:49.340Z,23.67
2022-07-29T18:29:19.585Z,23.70
2022-07-29T18:31:49.853Z,23.70
2022-07-29T18:34:19.891Z,23.64
2022-07-29T18:36:50.108Z,23.66
2022-07-29T18:39:21.145Z,23.67
2022-07-29T18:41:51.034Z,23.67
2022-07-29T18:44:21.866Z,23.65
2022-07-29T18:46:51.065Z,23.65
2022-07-29T18:49:21.118Z,23.62
2022-07-29T18:51:51.292Z,23.63
2022-07-29T18:54:21.465Z,23.62
2022-07-29T18:56:51.666Z,23.60
2022-07-29T18:59:21.872Z,23.58
2022-07-29T19:01:52.235Z,23.56
2022-07-29T19:04:22.237Z,23.53
2022-07-29T19:06:52.468Z,23.48
2022-07-29T19:09:22.631Z,23.42
2022-07-29T19:11:55.983Z,23.37
2022-07-29T19:14:23.029Z,23.31
2022-07-29T19:16:53.265Z,23.24
2022-07-29T19:19:23.414Z,23.18
2022-07-29T19:21:53.659Z,23.14
2022-07-29T19:24:23.829Z,23.10
2022-07-29T19:26:54.173Z,23.02
2022-07-29T19:29:24.250Z,22.95
2022-07-29T19:31:54.499Z,22.85
2022-07-29T19:34:24.720Z,22.80
2022-07-29T19:36:54.924Z,22.73
2022-07-29T19:39:31.958Z,22.64
2022-07-29T19:41:57.215Z,22.56
2022-07-29T19:44:25.530Z,22.47
2022-07-29T19:46:56.120Z,22.38
2022-07-29T19:49:26.055Z,22.32
2022-07-29T19:51:56.240Z,22.25
2022-07-29T19:54:26.467Z,22.15
2022-07-29T19:56:57.159Z,22.06
2022-07-29T19:59:26.946Z,22.00
2022-07-29T20:01:57.276Z,21.93
2022-07-29T20:04:27.437Z,21.87
2022-07-29T20:06:57.949Z,21.81
2022-07-29T20:09:27.953Z,21.75
2022-07-29T20:11:58.277Z,21.67
2022-07-29T20:14:28.499Z,21.60
2022-07-29T20:16:58.896Z,21.55
2022-07-29T20:19:28.918Z,21.49
2022-07-29T20:21:59.184Z,21.41
2022-07-29T20:24:29.395Z,21.36
2022-07-29T20:26:59.985Z,21.27
2022-07-29T20:29:29.896Z,21.17
2022-07-29T20:32:00.277Z,21.07
2022-07-29T20:34:30.428Z,21.04
2022-07-29T20:37:01.046Z,21.00
2022-07-29T20:39:30.953Z,20.94
2022-07-29T20:42:01.238Z,20.89
2022-07-29T20:44:31.497Z,20.80
2022-07-29T20:47:02.239Z,20.66
2022-07-29T20:49:32.021Z,20.55
2022-07-29T20:52:02.438Z,20.48
2022-07-29T20:54:32.582Z,20.47
2022-07-29T20:57:03.072Z,20.42
2022-07-29T20:59:33.148Z,20.37
2022-07-29T21:02:03.496Z,20.33
2022-07-29T21:04:33.763Z,20.26
2022-07-29T21:07:04.119Z,20.13
2022-07-29T21:09:34.448Z,20.02
2022-07-29T21:12:04.963Z,19.95
2022-07-29T21:14:35.511Z,19.89
2022-07-29T21:17:06.245Z,19.82
2022-07-29T21:19:36.674Z,19.75
2022-07-29T21:22:07.058Z,19.69
2022-07-29T21:24:37.792Z,19.61
2022-07-29T21:27:20.116Z,19.55
2022-07-29T21:29:38.192Z,19.53
2022-07-29T21:32:08.768Z,19.50
2022-07-29T21:34:39.138Z,19.49
2022-07-29T21:37:09.277Z,19.49
2022-07-29T21:39:39.953Z,19.44
2022-07-29T21:42:10.624Z,19.38
2022-07-29T21:44:40.777Z,19.33
2022-07-29T21:47:11.585Z,19.32
2022-07-29T21:49:42.156Z,19.32
2022-07-29T21:52:12.751Z,19.30
2022-07-29T21:54:43.162Z,19.30
2022-07-29T21:57:13.954Z,19.31
2022-07-29T21:59:44.489Z,19.30
2022-07-29T22:02:15.407Z,19.27
2022-07-29T22:04:45.545Z,19.27
2022-07-29T22:07:15.875Z,19.28
2022-07-29T22:09:45.898Z,19.30
2022-07-29T22:12:16.214Z,19.32
2022-07-29T22:14:46.574Z,19.30
2022-07-29T22:17:17.207Z,19.27
2022-07-29T22:19:47.566Z,19.23
2022-07-29T22:22:18.255Z,19.13
2022-07-29T22:24:48.548Z,19.03
2022-07-29T22:27:19.474Z,18.96
2022-07-29T22:29:49.507Z,18.91
2022-07-29T22:32:19.619Z,18.90
2022-07-29T22:34:50.041Z,18.90
2022-07-29T22:37:20.265Z,18.89
2022-07-29T22:39:50.315Z,18.89
2022-07-29T22:42:20.751Z,18.84
2022-07-29T22:44:51.487Z,18.82
2022-07-29T22:47:46.397Z,18.80
2022-07-29T22:49:52.567Z,18.79
2022-07-29T22:52:23.110Z,18.73
2022-07-29T22:54:53.973Z,18.68
2022-07-29T22:57:24.027Z,18.63
2022-07-29T22:59:54.315Z,18.64
2022-07-29T23:02:24.975Z,18.62
2022-07-29T23:04:55.255Z,18.58
2022-07-29T23:07:25.907Z,18.56
2022-07-29T23:09:56.632Z,18.54
2022-07-29T23:12:27.397Z,18.56
2022-07-29T23:14:58.137Z,18.54
2022-07-29T23:17:28.949Z,18.52
2022-07-29T23:19:59.639Z,18.50
2022-07-29T23:22:30.438Z,18.49
2022-07-29T23:25:01.111Z,18.45
2022-07-29T23:27:32.091Z,18.41
2022-07-29T23:30:02.094Z,18.39
2022-07-29T23:32:32.441Z,18.36
2022-07-29T23:35:02.665Z,18.29
2022-07-29T23:37:32.700Z,18.24
2022-07-29T23:40:03.453Z,18.23
2022-07-29T23:42:33.945Z,18.24
2022-07-29T23:45:04.181Z,18.21
2022-07-29T23:47:34.608Z,18.17
2022-07-29T23:50:04.914Z,18.14
2022-07-29T23:52:35.672Z,18.07
2022-07-29T23:55:37.957Z,18.04
2022-07-29T23:57:36.103Z,18.02
